createdAt,value
2022-12-15T00:01:11.104Z,-9.10
2022-12-15T00:02:32.206Z,-9.20
2022-12-15T00:03:53.008Z,-9.20
2022-12-15T00:05:13.860Z,-9.20
2022-12-15T00:06:34.674Z,-9.20
2022-12-15T00:07:55.746Z,-9.20
2022-12-15T00:09:19.846Z,-9.20
2022-12-15T00:10:41.200Z,-9.20
2022-12-15T00:12:02.069Z,-9.10
2022-12-15T00:13:29.876Z,-9.10
2022-12-15T00:14:51.236Z,-9.10
2022-12-15T00:16:12.013Z,-9.10
2022-12-15T00:17:33.199Z,-9.00
2022-12-15T00:18:53.871Z,-9.00
2022-12-15T00:20:14.625Z,-9.00
2022-12-15T00:21:35.574Z,-9.00
2022-12-15T00:22:56.465Z,-9.00
2022-12-15T00:24:17.276Z,-9.00
2022-12-15T00:25:38.366Z,-9.00
2022-12-15T00:26:59.093Z,-9.00
2022-12-15T00:28:20.047Z,-9.00
2022-12-15T00:29:40.751Z,-9.00
2022-12-15T00:31:02.698Z,-9.00
2022-12-15T00:32:24.033Z,-9.00
2022-12-15T00:33:45.105Z,-9.00
2022-12-15T00:35:05.903Z,-8.90
2022-12-15T00:36:27.186Z,-8.90
2022-12-15T00:37:47.919Z,-8.90
2022-12-15T00:38:50.196Z,-8.90
2022-12-15T00:39:59.259Z,-8.90
2022-12-15T00:41:19.085Z,-8.90
2022-12-15T00:42:21.391Z,-8.80
2022-12-15T00:43:23.595Z,-8.90
2022-12-15T00:44:25.806Z,-8.80
2022-12-15T00:45:48.064Z,-8.80
2022-12-15T00:46:56.504Z,-8.80
2022-12-15T00:47:58.918Z,-8.70
2022-12-15T00:49:01.680Z,-8.70
2022-12-15T00:50:23.132Z,-8.70
2022-12-15T00:51:44.705Z,-8.60
2022-12-15T00:53:05.404Z,-8.60
2022-12-15T00:54:26.120Z,-8.60
2022-12-15T00:55:47.213Z,-8.60
2022-12-15T00:57:07.925Z,-8.60
2022-12-15T00:58:29.028Z,-8.60
2022-12-15T00:59:50.103Z,-8.60
2022-12-15T01:01:10.898Z,-8.70
2022-12-15T01:02:31.584Z,-8.70
2022-12-15T01:03:52.632Z,-8.70
2022-12-15T01:05:13.786Z,-8.70
2022-12-15T01:06:37.124Z,-8.80
2022-12-15T01:07:57.953Z,-8.80
2022-12-15T01:09:19.915Z,-8.80
2022-12-15T01:10:41.115Z,-8.90
2022-12-15T01:12:03.164Z,-8.90
2022-12-15T01:13:24.312Z,-8.90
2022-12-15T01:14:46.655Z,-8.90
2022-12-15T01:16:07.753Z,-8.90
2022-12-15T01:17:28.970Z,-8.90
2022-12-15T01:18:52.287Z,-8.90
2022-12-15T01:20:18.193Z,-8.80
2022-12-15T01:21:24.350Z,-8.80
2022-12-15T01:22:27.429Z,-8.80
2022-12-15T01:23:30.723Z,-8.80
2022-12-15T01:24:33.534Z,-8.70
2022-12-15T01:25:38.514Z,-8.70
2022-12-15T01:26:40.760Z,-8.70
2022-12-15T01:27:43.282Z,-8.60
2022-12-15T01:28:45.575Z,-8.60
2022-12-15T01:29:47.954Z,-8.60
2022-12-15T01:30:50.698Z,-8.60
2022-12-15T01:31:52.955Z,-8.50
2022-12-15T01:32:55.280Z,-8.50
2022-12-15T01:33:57.612Z,-8.50
2022-12-15T01:34:59.892Z,-8.40
2022-12-15T01:36:02.426Z,-8.50
2022-12-15T01:37:04.827Z,-8.50
2022-12-15T01:38:07.783Z,-8.50
2022-12-15T01:39:11.084Z,-8.50
2022-12-15T01:40:35.524Z,-8.50
2022-12-15T01:41:37.871Z,-8.50
2022-12-15T01:42:40.096Z,-8.50
2022-12-15T01:43:42.337Z,-8.50
2022-12-15T01:44:47.290Z,-8.60
2022-12-15T01:45:53.192Z,-8.60
2022-12-15T01:46:56.480Z,-8.60
2022-12-15T01:48:07.360Z,-8.60
2022-12-15T01:49:21.712Z,-8.60
2022-12-15T01:50:25.412Z,-8.60
2022-12-15T01:51:35.133Z,-8.60
2022-12-15T01:52:37.360Z,-8.70
2022-12-15T01:53:50.135Z,-8.70
2022-12-15T01:54:57.861Z,-8.60
2022-12-15T01:56:00.706Z,-8.70
2022-12-15T01:57:20.196Z,-8.70
2022-12-15T01:58:23.074Z,-8.70
2022-12-15T01:59:34.117Z,-8.70
2022-12-15T02:00:36.801Z,-8.70
2022-12-15T02:01:39.581Z,-8.80
2022-12-15T02:02:45.848Z,-8.80
2022-12-15T02:03:48.722Z,-8.80
2022-12-15T02:04:52.692Z,-8.80
2022-12-15T02:05:55.909Z,-8.80
2022-12-15T02:06:58.167Z,-8.80
2022-12-15T02:08:01.564Z,-8.80
2022-12-15T02:09:04.957Z,-8.80
2022-12-15T02:10:10.273Z,-8.80
2022-12-15T02:11:33.652Z,-8.90
2022-12-15T02:12:54.669Z,-8.90
2022-12-15T02:14:11.007Z,-9.00
2022-12-15T02:15:39.297Z,-9.00
2022-12-15T02:17:09.979Z,-9.10
2022-12-15T02:18:33.344Z,-9.10
2022-12-15T02:20:12.468Z,-9.20
2022-12-15T02:21:14.725Z,-9.20
2022-12-15T02:22:36.397Z,-9.30
2022-12-15T02:23:50.510Z,-9.30
2022-12-15T02:25:15.507Z,-9.40
2022-12-15T02:26:55.016Z,-9.40
2022-12-15T02:28:02.421Z,-9.40
2022-12-15T02:29:28.221Z,-9.50
2022-12-15T02:31:11.519Z,-9.50
2022-12-15T02:32:25.104Z,-9.50
2022-12-15T02:33:30.143Z,-9.50
2022-12-15T02:35:01.672Z,-9.50
2022-12-15T02:36:21.243Z,-9.50
2022-12-15T02:37:37.749Z,-9.60
2022-12-15T02:38:45.014Z,-9.60
2022-12-15T02:39:47.314Z,-9.60
2022-12-15T02:41:00.679Z,-9.60
2022-12-15T02:42:03.305Z,-9.60
2022-12-15T02:43:07.412Z,-9.60
2022-12-15T02:44:23.807Z,-9.60
2022-12-15T02:45:52.460Z,-9.60
2022-12-15T02:47:00.625Z,-9.60
2022-12-15T02:48:27.377Z,-9.60
2022-12-15T02:49:53.953Z,-9.70
2022-12-15T02:51:14.964Z,-9.70
2022-12-15T02:52:33.180Z,-9.70
2022-12-15T02:53:58.948Z,-9.80
2022-12-15T02:55:13.515Z,-9.80
2022-12-15T02:56:37.870Z,-9.80
2022-12-15T02:58:05.680Z,-9.90
2022-12-15T02:59:40.391Z,-9.90
2022-12-15T03:00:47.248Z,-9.90
2022-12-15T03:01:58.611Z,-10.00
2022-12-15T03:03:01.448Z,-10.00
2022-12-15T03:04:06.943Z,-10.00
2022-12-15T03:05:10.176Z,-9.90
2022-12-15T03:06:12.436Z,-9.90
2022-12-15T03:07:14.677Z,-9.90
2022-12-15T03:08:17.047Z,-9.90
2022-12-15T03:09:19.284Z,-9.90
2022-12-15T03:10:24.607Z,-9.90
2022-12-15T03:11:27.668Z,-9.90
2022-12-15T03:12:32.486Z,-9.90
2022-12-15T03:13:34.998Z,-9.80
2022-12-15T03:14:37.474Z,-9.90
2022-12-15T03:15:39.701Z,-9.90
2022-12-15T03:16:42.037Z,-9.80
2022-12-15T03:17:44.635Z,-9.80
2022-12-15T03:18:47.253Z,-9.80
2022-12-15T03:19:49.624Z,-9.80
2022-12-15T03:20:52.210Z,-9.80
2022-12-15T03:21:54.455Z,-9.80
2022-12-15T03:22:56.701Z,-9.80
2022-12-15T03:23:58.953Z,-9.80
2022-12-15T03:25:01.283Z,-9.80
2022-12-15T03:26:03.682Z,-9.80
2022-12-15T03:27:06.068Z,-9.80
2022-12-15T03:28:08.314Z,-9.90
2022-12-15T03:29:10.659Z,-9.90
2022-12-15T03:30:13.697Z,-9.90
2022-12-15T03:31:15.978Z,-9.90
2022-12-15T03:32:18.475Z,-9.90
2022-12-15T03:33:21.538Z,-10.00
2022-12-15T03:34:23.832Z,-10.00
2022-12-15T03:35:26.019Z,-10.00
2022-12-15T03:36:28.283Z,-10.10
2022-12-15T03:37:30.568Z,-10.10
2022-12-15T03:38:32.911Z,-10.10
2022-12-15T03:39:35.195Z,-10.10
2022-12-15T03:40:37.514Z,-10.10
2022-12-15T03:41:41.582Z,-10.20
2022-12-15T03:42:49.148Z,-10.20
2022-12-15T03:43:51.362Z,-10.20
2022-12-15T03:44:53.539Z,-10.20
2022-12-15T03:45:55.899Z,-10.20
2022-12-15T03:47:02.953Z,-10.20
2022-12-15T03:48:06.100Z,-10.20
2022-12-15T03:49:08.394Z,-10.20
2022-12-15T03:50:11.633Z,-10.20
2022-12-15T03:51:13.972Z,-10.10
2022-12-15T03:52:16.243Z,-10.30
2022-12-15T03:53:18.461Z,-10.30
2022-12-15T03:54:20.815Z,-10.30
2022-12-15T03:55:24.243Z,-10.30
2022-12-15T03:56:26.579Z,-10.30
2022-12-15T03:57:28.817Z,-10.30
2022-12-15T03:58:31.140Z,-10.30
2022-12-15T03:59:33.367Z,-10.30
2022-12-15T04:00:35.670Z,-10.30
2022-12-15T04:01:37.995Z,-10.30
2022-12-15T04:02:41.064Z,-10.30
2022-12-15T04:03:45.804Z,-10.30
2022-12-15T04:04:48.845Z,-10.30
2022-12-15T04:05:51.156Z,-10.30
2022-12-15T04:06:53.350Z,-10.30
2022-12-15T04:07:57.120Z,-10.30
2022-12-15T04:08:59.375Z,-10.30
2022-12-15T04:10:01.637Z,-10.30
2022-12-15T04:11:03.976Z,-10.30
2022-12-15T04:12:06.513Z,-10.30
2022-12-15T04:13:10.744Z,-10.30
2022-12-15T04:14:13.123Z,-10.30
2022-12-15T04:15:15.919Z,-10.30
2022-12-15T04:16:20.432Z,-10.30
2022-12-15T04:17:22.881Z,-10.20
2022-12-15T04:18:25.088Z,-10.20
2022-12-15T04:19:46.178Z,-10.20
2022-12-15T04:20:50.217Z,-10.20
2022-12-15T04:21:52.690Z,-10.10
2022-12-15T04:22:55.449Z,-10.10
2022-12-15T04:24:16.310Z,-10.10
2022-12-15T04:25:40.602Z,-10.10
2022-12-15T04:27:01.747Z,-10.10
2022-12-15T04:28:23.286Z,-10.10
2022-12-15T04:29:44.020Z,-10.10
2022-12-15T04:31:10.387Z,-10.10
2022-12-15T04:32:31.171Z,-10.10
2022-12-15T04:33:52.399Z,-10.10
2022-12-15T04:35:13.853Z,-10.10
2022-12-15T04:36:35.583Z,-10.10
2022-12-15T04:37:56.452Z,-10.20
2022-12-15T04:39:17.883Z,-10.20
2022-12-15T04:40:38.602Z,-10.20
2022-12-15T04:41:59.240Z,-10.20
2022-12-15T04:43:20.044Z,-10.20
2022-12-15T04:44:41.340Z,-10.30
2022-12-15T04:46:02.385Z,-10.30
2022-12-15T04:47:23.507Z,-10.30
2022-12-15T04:48:44.268Z,-10.40
2022-12-15T04:50:05.118Z,-10.40
2022-12-15T04:51:25.849Z,-10.40
2022-12-15T04:52:47.246Z,-10.40
2022-12-15T04:54:08.264Z,-10.40
2022-12-15T04:55:29.289Z,-10.40
2022-12-15T04:56:51.173Z,-10.40
2022-12-15T04:58:12.287Z,-10.40
2022-12-15T04:59:33.061Z,-10.30
2022-12-15T05:00:55.451Z,-10.30
2022-12-15T05:02:17.715Z,-10.20
2022-12-15T05:03:38.328Z,-10.30
2022-12-15T05:04:59.119Z,-10.20
2022-12-15T05:06:19.958Z,-10.20
2022-12-15T05:07:42.617Z,-10.20
2022-12-15T05:09:03.571Z,-10.20
2022-12-15T05:10:24.810Z,-10.20
2022-12-15T05:11:45.958Z,-10.10
2022-12-15T05:13:06.867Z,-10.10
2022-12-15T05:14:27.598Z,-10.10
2022-12-15T05:15:48.839Z,-10.10
2022-12-15T05:17:09.790Z,-10.10
2022-12-15T05:18:31.615Z,-10.10
2022-12-15T05:19:52.302Z,-10.10
2022-12-15T05:21:13.315Z,-10.10
2022-12-15T05:22:34.455Z,-10.10
2022-12-15T05:23:55.170Z,-10.10
2022-12-15T05:25:16.186Z,-10.20
2022-12-15T05:26:37.308Z,-10.20
2022-12-15T05:27:58.093Z,-10.20
2022-12-15T05:29:18.790Z,-10.20
2022-12-15T05:30:39.656Z,-10.20
2022-12-15T05:31:55.420Z,-10.20
2022-12-15T05:32:57.672Z,-10.20
2022-12-15T05:34:05.114Z,-10.20
2022-12-15T05:35:08.009Z,-10.20
2022-12-15T05:36:10.250Z,-10.20
2022-12-15T05:37:12.560Z,-10.20
2022-12-15T05:38:14.754Z,-10.20
2022-12-15T05:39:16.972Z,-10.10
2022-12-15T05:40:19.285Z,-10.20
2022-12-15T05:41:22.349Z,-10.10
2022-12-15T05:42:24.669Z,-10.10
2022-12-15T05:43:28.255Z,-10.10
2022-12-15T05:44:30.930Z,-10.10
2022-12-15T05:45:33.348Z,-10.10
2022-12-15T05:46:35.906Z,-10.10
2022-12-15T05:47:38.191Z,-10.10
2022-12-15T05:48:41.520Z,-10.10
2022-12-15T05:49:43.771Z,-10.10
2022-12-15T05:50:46.078Z,-10.10
2022-12-15T05:51:48.345Z,-10.10
2022-12-15T05:52:50.987Z,-10.10
2022-12-15T05:53:54.156Z,-10.10
2022-12-15T05:54:56.352Z,-10.00
2022-12-15T05:56:03.670Z,-10.00
2022-12-15T05:57:05.938Z,-10.00
2022-12-15T05:58:08.205Z,-10.00
2022-12-15T05:59:10.496Z,-10.00
2022-12-15T06:00:13.519Z,-9.90
2022-12-15T06:01:17.616Z,-9.90
2022-12-15T06:02:20.034Z,-9.90
2022-12-15T06:03:22.288Z,-9.90
2022-12-15T06:04:24.708Z,-9.80
2022-12-15T06:05:27.106Z,-9.80
2022-12-15T06:06:29.635Z,-9.80
2022-12-15T06:07:31.855Z,-9.80
2022-12-15T06:08:36.125Z,-9.80
2022-12-15T06:09:38.491Z,-9.70
2022-12-15T06:10:40.689Z,-9.70
2022-12-15T06:11:43.689Z,-9.70
2022-12-15T06:12:46.226Z,-9.60
2022-12-15T06:13:48.900Z,-9.60
2022-12-15T06:14:51.192Z,-9.60
2022-12-15T06:16:01.727Z,-9.60
2022-12-15T06:17:04.014Z,-9.50
2022-12-15T06:18:06.329Z,-9.50
2022-12-15T06:19:08.857Z,-9.60
2022-12-15T06:20:11.520Z,-9.50
2022-12-15T06:21:16.348Z,-9.50
2022-12-15T06:22:18.807Z,-9.50
2022-12-15T06:23:21.040Z,-9.50
2022-12-15T06:24:24.711Z,-9.50
2022-12-15T06:25:26.944Z,-9.50
2022-12-15T06:26:35.266Z,-9.50
2022-12-15T06:27:37.888Z,-9.50
2022-12-15T06:28:41.188Z,-9.50
2022-12-15T06:29:43.436Z,-9.50
2022-12-15T06:30:45.657Z,-9.50
2022-12-15T06:31:48.065Z,-9.50
2022-12-15T06:32:50.440Z,-9.50
2022-12-15T06:34:01.044Z,-9.50
2022-12-15T06:35:04.105Z,-9.50
2022-12-15T06:36:12.310Z,-9.50
2022-12-15T06:37:14.556Z,-9.50
2022-12-15T06:38:17.083Z,-9.50
2022-12-15T06:39:19.399Z,-9.50
2022-12-15T06:40:21.764Z,-9.50
2022-12-15T06:41:24.085Z,-9.50
2022-12-15T06:42:26.291Z,-9.50
2022-12-15T06:43:29.644Z,-9.50
2022-12-15T06:44:32.199Z,-9.40
2022-12-15T06:45:35.618Z,-9.40
2022-12-15T06:46:38.036Z,-9.40
2022-12-15T06:47:40.305Z,-9.40
2022-12-15T06:48:45.044Z,-9.40
2022-12-15T06:49:47.327Z,-9.40
2022-12-15T06:50:50.196Z,-9.40
2022-12-15T06:51:52.759Z,-9.40
2022-12-15T06:52:55.024Z,-9.40
2022-12-15T06:53:57.392Z,-9.40
2022-12-15T06:55:00.958Z,-9.40
2022-12-15T06:56:05.499Z,-9.40
2022-12-15T06:57:07.742Z,-9.40
2022-12-15T06:58:12.332Z,-9.40
2022-12-15T06:59:14.780Z,-9.40
2022-12-15T07:00:17.306Z,-9.40
2022-12-15T07:01:22.076Z,-9.30
2022-12-15T07:02:28.863Z,-9.40
2022-12-15T07:03:32.367Z,-9.30
2022-12-15T07:04:34.991Z,-9.30
2022-12-15T07:05:37.255Z,-9.30
2022-12-15T07:06:40.317Z,-9.30
2022-12-15T07:07:42.546Z,-9.30
2022-12-15T07:08:52.494Z,-9.30
2022-12-15T07:09:54.857Z,-9.30
2022-12-15T07:10:57.514Z,-9.30
2022-12-15T07:11:59.822Z,-9.20
2022-12-15T07:13:02.084Z,-9.20
2022-12-15T07:14:05.084Z,-9.20
2022-12-15T07:15:08.164Z,-9.20
2022-12-15T07:16:12.291Z,-9.20
2022-12-15T07:17:14.638Z,-9.20
2022-12-15T07:18:17.691Z,-9.20
2022-12-15T07:19:20.007Z,-9.20
2022-12-15T07:20:28.504Z,-9.10
2022-12-15T07:21:32.150Z,-9.10
2022-12-15T07:22:34.634Z,-9.10
2022-12-15T07:23:54.007Z,-9.10
2022-12-15T07:24:57.733Z,-9.10
2022-12-15T07:26:11.093Z,-9.10
2022-12-15T07:27:14.397Z,-9.10
2022-12-15T07:28:19.999Z,-9.00
2022-12-15T07:29:25.284Z,-9.00
2022-12-15T07:30:27.729Z,-8.90
2022-12-15T07:31:30.912Z,-8.90
2022-12-15T07:32:33.532Z,-8.90
2022-12-15T07:33:37.516Z,-8.90
2022-12-15T07:34:39.883Z,-8.80
2022-12-15T07:35:42.665Z,-8.80
2022-12-15T07:36:51.578Z,-8.80
2022-12-15T07:37:54.708Z,-8.80
2022-12-15T07:39:01.787Z,-8.70
2022-12-15T07:40:05.541Z,-8.70
2022-12-15T07:41:09.771Z,-8.70
2022-12-15T07:42:12.106Z,-8.60
2022-12-15T07:43:14.379Z,-8.60
2022-12-15T07:44:17.123Z,-8.60
2022-12-15T07:45:19.406Z,-8.60
2022-12-15T07:46:21.768Z,-8.60
2022-12-15T07:47:25.183Z,-8.60
2022-12-15T07:48:27.869Z,-8.50
2022-12-15T07:49:30.236Z,-8.50
2022-12-15T07:50:32.472Z,-8.50
2022-12-15T07:51:34.694Z,-8.50
2022-12-15T07:52:37.432Z,-8.50
2022-12-15T07:53:40.376Z,-8.50
2022-12-15T07:54:42.682Z,-8.50
2022-12-15T07:56:06.445Z,-8.40
2022-12-15T07:57:07.564Z,-8.40
2022-12-15T07:58:09.986Z,-8.40
2022-12-15T07:59:12.308Z,-8.40
2022-12-15T08:00:16.301Z,-8.40
2022-12-15T08:01:18.985Z,-8.30
2022-12-15T08:02:21.503Z,-8.30
2022-12-15T08:03:24.560Z,-8.30
2022-12-15T08:04:27.577Z,-8.30
2022-12-15T08:05:29.922Z,-8.30
2022-12-15T08:06:32.341Z,-8.20
2022-12-15T08:07:34.588Z,-8.20
2022-12-15T08:08:37.439Z,-8.20
2022-12-15T08:09:39.715Z,-8.20
2022-12-15T08:10:41.960Z,-8.10
2022-12-15T08:11:44.336Z,-8.10
2022-12-15T08:12:46.584Z,-8.10
2022-12-15T08:14:02.441Z,-8.10
2022-12-15T08:15:06.217Z,-8.10
2022-12-15T08:16:08.481Z,-8.00
2022-12-15T08:17:10.773Z,-8.00
2022-12-15T08:18:13.459Z,-8.00
2022-12-15T08:19:17.754Z,-8.00
2022-12-15T08:20:19.974Z,-7.90
2022-12-15T08:21:22.227Z,-7.90
2022-12-15T08:22:24.832Z,-7.90
2022-12-15T08:23:29.152Z,-7.80
2022-12-15T08:24:31.688Z,-7.80
2022-12-15T08:25:33.993Z,-7.80
2022-12-15T08:26:40.287Z,-7.80
2022-12-15T08:27:42.547Z,-7.70
2022-12-15T08:28:45.998Z,-7.70
2022-12-15T08:29:51.560Z,-7.70
2022-12-15T08:30:54.330Z,-7.60
2022-12-15T08:31:56.814Z,-7.60
2022-12-15T08:32:59.169Z,-7.60
2022-12-15T08:34:02.783Z,-7.50
2022-12-15T08:35:11.861Z,-7.50
2022-12-15T08:36:28.324Z,-7.50
2022-12-15T08:37:30.650Z,-7.40
2022-12-15T08:38:34.146Z,-7.40
2022-12-15T08:39:37.587Z,-7.40
2022-12-15T08:40:39.845Z,-7.30
2022-12-15T08:41:42.493Z,-7.30
2022-12-15T08:42:44.751Z,-7.30
2022-12-15T08:43:49.187Z,-7.20
2022-12-15T08:44:52.726Z,-7.20
2022-12-15T08:45:55.263Z,-7.20
2022-12-15T08:46:57.512Z,-7.10
2022-12-15T08:47:59.887Z,-7.10
2022-12-15T08:49:03.567Z,-7.10
2022-12-15T08:50:07.904Z,-7.00
2022-12-15T08:51:10.318Z,-7.00
2022-12-15T08:52:12.590Z,-7.00
2022-12-15T08:53:30.703Z,-6.90
2022-12-15T08:54:34.157Z,-6.90
2022-12-15T08:55:36.398Z,-6.80
2022-12-15T08:56:38.643Z,-6.80
2022-12-15T08:57:40.915Z,-6.80
2022-12-15T08:58:44.404Z,-6.70
2022-12-15T08:59:46.677Z,-6.70
2022-12-15T09:00:49.010Z,-6.60
2022-12-15T09:01:51.725Z,-6.70
2022-12-15T09:02:54.149Z,-6.60
2022-12-15T09:03:57.114Z,-6.60
2022-12-15T09:04:59.462Z,-6.60
2022-12-15T09:06:06.116Z,-6.50
2022-12-15T09:07:08.640Z,-6.50
2022-12-15T09:08:11.355Z,-6.50
2022-12-15T09:09:14.124Z,-6.40
2022-12-15T09:10:16.538Z,-6.40
2022-12-15T09:11:18.800Z,-6.40
2022-12-15T09:12:21.084Z,-6.30
2022-12-15T09:13:23.347Z,-6.30
2022-12-15T09:14:29.049Z,-6.20
2022-12-15T09:16:00.245Z,-6.20
2022-12-15T09:16:54.472Z,-6.10
2022-12-15T09:17:57.009Z,-6.10
2022-12-15T09:19:00.562Z,-6.10
2022-12-15T09:20:04.044Z,-6.00
2022-12-15T09:21:08.284Z,-6.00
2022-12-15T09:22:11.400Z,-6.00
2022-12-15T09:23:13.633Z,-5.90
2022-12-15T09:24:23.206Z,-5.90
2022-12-15T09:25:27.317Z,-5.80
2022-12-15T09:26:33.024Z,-5.80
2022-12-15T09:27:35.479Z,-5.80
2022-12-15T09:28:38.573Z,-5.70
2022-12-15T09:29:40.819Z,-5.70
2022-12-15T09:30:43.136Z,-5.70
2022-12-15T09:31:46.612Z,-5.70
2022-12-15T09:32:49.121Z,-5.60
2022-12-15T09:33:53.296Z,-5.60
2022-12-15T09:34:55.589Z,-5.60
2022-12-15T09:35:57.846Z,-5.50
2022-12-15T09:37:01.112Z,-5.50
2022-12-15T09:38:03.378Z,-5.50
2022-12-15T09:39:05.597Z,-5.50
2022-12-15T09:40:11.414Z,-5.40
2022-12-15T09:41:13.702Z,-5.40
2022-12-15T09:42:26.729Z,-5.40
2022-12-15T09:43:34.708Z,-5.30
2022-12-15T09:45:22.126Z,-5.30
2022-12-15T09:46:34.904Z,-5.20
2022-12-15T09:47:45.378Z,-5.20
2022-12-15T09:48:49.742Z,-5.20
2022-12-15T09:50:01.677Z,-5.20
2022-12-15T09:51:04.999Z,-5.10
2022-12-15T09:52:13.062Z,-5.10
2022-12-15T09:53:52.850Z,-5.10
2022-12-15T09:54:43.656Z,-5.00
2022-12-15T09:55:50.629Z,-4.90
2022-12-15T09:56:58.033Z,-4.80
2022-12-15T09:58:11.459Z,-4.70
2022-12-15T09:59:32.098Z,-4.50
2022-12-15T10:00:58.120Z,-4.40
2022-12-15T10:02:13.728Z,-4.20
2022-12-15T10:03:31.378Z,-4.10
2022-12-15T10:05:04.307Z,-3.90
2022-12-15T10:06:20.204Z,-3.70
2022-12-15T10:07:46.315Z,-3.70
2022-12-15T10:08:58.375Z,-3.50
2022-12-15T10:10:11.255Z,-3.40
2022-12-15T10:11:37.795Z,-3.40
2022-12-15T10:12:55.282Z,-3.30
2022-12-15T10:14:22.954Z,-3.20
2022-12-15T10:15:54.976Z,-3.10
2022-12-15T10:17:08.182Z,-3.00
2022-12-15T10:18:29.891Z,-2.90
2022-12-15T10:19:43.539Z,-2.90
2022-12-15T10:20:48.499Z,-2.80
2022-12-15T10:21:52.630Z,-2.70
2022-12-15T10:23:00.508Z,-2.70
2022-12-15T10:24:26.823Z,-2.60
2022-12-15T10:25:43.905Z,-2.60
2022-12-15T10:27:17.233Z,-2.50
2022-12-15T10:28:51.294Z,-2.50
2022-12-15T10:30:00.334Z,-2.50
2022-12-15T10:31:19.447Z,-2.40
2022-12-15T10:32:52.819Z,-2.40
2022-12-15T10:34:01.359Z,-2.40
2022-12-15T10:35:12.852Z,-2.40
2022-12-15T10:36:16.405Z,-2.30
2022-12-15T10:37:20.957Z,-2.30
2022-12-15T10:38:38.086Z,-2.20
2022-12-15T10:39:43.197Z,-2.20
2022-12-15T10:41:12.771Z,-2.20
2022-12-15T10:42:22.518Z,-2.10
2022-12-15T10:43:30.120Z,-2.10
2022-12-15T10:44:38.931Z,-2.00
2022-12-15T10:45:41.329Z,-2.00
2022-12-15T10:46:44.747Z,-2.00
2022-12-15T10:47:58.855Z,-1.90
2022-12-15T10:49:22.829Z,-1.90
2022-12-15T10:50:27.742Z,-1.90
2022-12-15T10:51:32.694Z,-1.90
2022-12-15T10:52:37.399Z,-1.90
2022-12-15T10:54:09.897Z,-1.90
2022-12-15T10:55:41.105Z,-1.90
2022-12-15T10:56:57.695Z,-1.80
2022-12-15T10:58:02.727Z,-1.80
2022-12-15T10:59:23.954Z,-1.80
2022-12-15T11:00:29.433Z,-1.90
2022-12-15T11:01:34.769Z,-1.90
2022-12-15T11:02:37.655Z,-1.90
2022-12-15T11:03:40.795Z,-1.90
2022-12-15T11:05:00.442Z,-1.90
2022-12-15T11:06:17.184Z,-1.90
2022-12-15T11:07:19.554Z,-1.90
2022-12-15T11:08:23.488Z,-1.80
2022-12-15T11:09:39.293Z,-1.80
2022-12-15T11:11:26.053Z,-1.80
2022-12-15T11:12:50.713Z,-1.80
2022-12-15T11:14:11.830Z,-1.80
2022-12-15T11:15:23.151Z,-1.80
2022-12-15T11:16:25.500Z,-1.80
2022-12-15T11:17:40.627Z,-1.80
2022-12-15T11:18:58.290Z,-1.80
2022-12-15T11:20:12.126Z,-1.80
2022-12-15T11:21:22.439Z,-1.70
2022-12-15T11:22:38.005Z,-1.70
2022-12-15T11:24:05.635Z,-1.60
2022-12-15T11:25:27.333Z,-1.50
2022-12-15T11:26:55.100Z,-1.50
2022-12-15T11:28:00.091Z,-1.40
2022-12-15T11:29:20.968Z,-1.40
2022-12-15T11:30:33.250Z,-1.30
2022-12-15T11:31:40.137Z,-1.20
2022-12-15T11:32:46.912Z,-1.20
2022-12-15T11:33:55.525Z,-1.20
2022-12-15T11:34:58.072Z,-1.20
2022-12-15T11:36:13.716Z,-1.10
2022-12-15T11:37:44.661Z,-1.10
2022-12-15T11:38:55.034Z,-1.10
2022-12-15T11:40:33.067Z,-1.10
2022-12-15T11:41:59.037Z,-1.10
2022-12-15T11:43:36.243Z,-1.10
2022-12-15T11:44:38.951Z,-1.20
2022-12-15T11:45:59.462Z,-1.20
2022-12-15T11:47:22.595Z,-1.20
2022-12-15T11:48:59.420Z,-1.30
2022-12-15T11:50:19.929Z,-1.40
2022-12-15T11:51:41.977Z,-1.40
2022-12-15T11:52:50.122Z,-1.50
2022-12-15T11:54:14.793Z,-1.60
2022-12-15T11:55:33.196Z,-1.60
2022-12-15T11:56:46.578Z,-1.70
2022-12-15T11:58:13.238Z,-1.70
2022-12-15T11:59:52.696Z,-1.80
2022-12-15T12:00:58.202Z,-1.80
2022-12-15T12:02:21.094Z,-1.90
2022-12-15T12:03:35.562Z,-1.90
2022-12-15T12:05:15.485Z,-1.90
2022-12-15T12:06:32.771Z,-1.90
2022-12-15T12:07:56.517Z,-1.90
2022-12-15T12:09:25.058Z,-1.90
2022-12-15T12:11:02.243Z,-1.90
2022-12-15T12:12:41.435Z,-1.90
2022-12-15T12:13:54.454Z,-1.90
2022-12-15T12:15:28.803Z,-1.90
2022-12-15T12:16:47.716Z,-1.90
2022-12-15T12:17:59.044Z,-1.90
2022-12-15T12:19:05.930Z,-1.80
2022-12-15T12:20:20.020Z,-1.80
2022-12-15T12:21:29.629Z,-1.70
2022-12-15T12:22:49.343Z,-1.70
2022-12-15T12:24:11.971Z,-1.60
2022-12-15T12:25:25.515Z,-1.60
2022-12-15T12:26:42.951Z,-1.60
2022-12-15T12:28:15.242Z,-1.60
2022-12-15T12:29:45.629Z,-1.60
2022-12-15T12:30:51.217Z,-1.70
2022-12-15T12:32:07.343Z,-1.70
2022-12-15T12:33:12.492Z,-1.70
2022-12-15T12:34:23.567Z,-1.70
2022-12-15T12:35:56.715Z,-1.80
2022-12-15T12:37:21.945Z,-1.70
2022-12-15T12:38:31.483Z,-1.80
2022-12-15T12:39:34.519Z,-1.80
2022-12-15T12:41:05.238Z,-1.80
2022-12-15T12:42:19.041Z,-1.80
2022-12-15T12:43:32.882Z,-1.80
2022-12-15T12:44:39.024Z,-1.80
2022-12-15T12:46:19.554Z,-1.80
2022-12-15T12:47:33.108Z,-1.80
2022-12-15T12:48:50.670Z,-1.80
2022-12-15T12:50:02.669Z,-1.70
2022-12-15T12:51:26.388Z,-1.70
2022-12-15T12:52:35.512Z,-1.80
2022-12-15T12:53:37.850Z,-1.80
2022-12-15T12:54:43.092Z,-1.70
2022-12-15T12:55:45.649Z,-1.70
2022-12-15T12:56:50.457Z,-1.70
2022-12-15T12:57:53.974Z,-1.70
2022-12-15T12:58:56.429Z,-1.70
2022-12-15T13:00:00.823Z,-1.70
2022-12-15T13:01:25.890Z,-1.70
2022-12-15T13:02:29.378Z,-1.70
2022-12-15T13:03:32.110Z,-1.70
2022-12-15T13:04:39.731Z,-1.70
2022-12-15T13:05:43.608Z,-1.70
2022-12-15T13:06:46.751Z,-1.70
2022-12-15T13:08:06.838Z,-1.60
2022-12-15T13:09:17.749Z,-1.70
2022-12-15T13:10:22.990Z,-1.70
2022-12-15T13:11:53.836Z,-1.60
2022-12-15T13:13:16.478Z,-1.70
2022-12-15T13:14:26.329Z,-1.70
2022-12-15T13:15:31.491Z,-1.70
2022-12-15T13:16:37.196Z,-1.70
2022-12-15T13:17:48.906Z,-1.70
2022-12-15T13:19:08.535Z,-1.70
2022-12-15T13:20:23.395Z,-1.70
2022-12-15T13:21:44.224Z,-1.70
2022-12-15T13:22:46.676Z,-1.70
2022-12-15T13:23:58.497Z,-1.70
2022-12-15T13:25:02.012Z,-1.70
2022-12-15T13:26:04.245Z,-1.70
2022-12-15T13:27:09.289Z,-1.70
2022-12-15T13:28:19.302Z,-1.70
2022-12-15T13:29:23.782Z,-1.70
2022-12-15T13:30:26.168Z,-1.70
2022-12-15T13:31:30.500Z,-1.70
2022-12-15T13:32:45.327Z,-1.80
2022-12-15T13:33:50.382Z,-1.80
2022-12-15T13:34:52.789Z,-1.80
2022-12-15T13:35:55.309Z,-1.80
2022-12-15T13:36:59.165Z,-1.80
2022-12-15T13:38:08.488Z,-1.80
2022-12-15T13:39:13.295Z,-1.90
2022-12-15T13:40:35.436Z,-1.90
2022-12-15T13:41:38.702Z,-1.90
2022-12-15T13:42:53.173Z,-1.90
2022-12-15T13:44:00.348Z,-1.90
2022-12-15T13:45:16.179Z,-1.90
2022-12-15T13:46:25.982Z,-1.90
2022-12-15T13:47:31.399Z,-1.90
2022-12-15T13:48:51.532Z,-1.90
2022-12-15T13:50:17.724Z,-1.90
2022-12-15T13:51:31.678Z,-2.00
2022-12-15T13:53:17.296Z,-2.00
2022-12-15T13:54:26.369Z,-2.00
2022-12-15T13:55:37.360Z,-2.00
2022-12-15T13:56:54.840Z,-2.10
2022-12-15T13:58:17.652Z,-2.10
2022-12-15T13:59:42.740Z,-2.10
2022-12-15T14:00:55.640Z,-2.10
2022-12-15T14:01:58.194Z,-2.10
2022-12-15T14:03:11.371Z,-2.20
2022-12-15T14:04:16.714Z,-2.20
2022-12-15T14:05:22.482Z,-2.20
2022-12-15T14:06:28.524Z,-2.20
2022-12-15T14:07:31.086Z,-2.20
2022-12-15T14:08:33.361Z,-2.30
2022-12-15T14:09:41.021Z,-2.30
2022-12-15T14:10:51.265Z,-2.30
2022-12-15T14:11:54.468Z,-2.30
2022-12-15T14:12:58.490Z,-2.30
2022-12-15T14:14:02.488Z,-2.30
2022-12-15T14:15:05.115Z,-2.40
2022-12-15T14:16:22.070Z,-2.40
2022-12-15T14:17:25.450Z,-2.40
2022-12-15T14:18:34.060Z,-2.40
2022-12-15T14:19:42.065Z,-2.40
2022-12-15T14:20:44.316Z,-2.50
2022-12-15T14:21:53.428Z,-2.50
2022-12-15T14:22:55.689Z,-2.50
2022-12-15T14:24:36.481Z,-2.50
2022-12-15T14:25:31.905Z,-2.50
2022-12-15T14:26:34.240Z,-2.60
2022-12-15T14:27:36.528Z,-2.60
2022-12-15T14:28:41.025Z,-2.60
2022-12-15T14:29:43.314Z,-2.70
2022-12-15T14:30:45.583Z,-2.70
2022-12-15T14:31:57.516Z,-2.70
2022-12-15T14:33:08.104Z,-2.70
2022-12-15T14:34:21.509Z,-2.70
2022-12-15T14:35:26.494Z,-2.80
2022-12-15T14:36:30.670Z,-2.80
2022-12-15T14:37:33.512Z,-2.80
2022-12-15T14:38:58.047Z,-2.80
2022-12-15T14:40:01.240Z,-2.90
2022-12-15T14:41:04.915Z,-2.90
2022-12-15T14:42:08.333Z,-2.90
2022-12-15T14:43:21.653Z,-2.90
2022-12-15T14:44:38.284Z,-3.00
2022-12-15T14:46:05.078Z,-3.00
2022-12-15T14:47:18.246Z,-3.00
2022-12-15T14:48:44.543Z,-3.10
2022-12-15T14:49:48.517Z,-3.10
2022-12-15T14:50:51.266Z,-3.10
2022-12-15T14:51:59.505Z,-3.10
2022-12-15T14:53:15.416Z,-3.10
2022-12-15T14:54:38.724Z,-3.20
2022-12-15T14:55:41.178Z,-3.10
2022-12-15T14:56:43.499Z,-3.10
2022-12-15T14:57:47.243Z,-3.20
2022-12-15T14:59:04.025Z,-3.20
2022-12-15T15:00:27.012Z,-3.20
2022-12-15T15:01:33.653Z,-3.20